Terminal Aerodrome Forecast
Issued by NWS Grand Forks, ND

Home | Current Version | Previous Version | Graphics & Text | Print | Product List | Glossary On
Versions: 1 2 3 4 5 6 7 8 9 10 11 12 13 14 15
000
FTUS43 KFGF 262300
TAFGFK
TAF
KGFK 262335Z 2700/2724 27016G22KT P6SM VCSH BKN040
     FM270600 30015KT P6SM VCSH BKN025
     FM271400 35017G26KT P6SM BKN025
     FM271900 35020KT P6SM BKN035=

USA.gov is the U.S. government's official web portal to all federal, state and local government web resources and services.